sensor_id;sensor_type;location;lat;lon;timestamp;temperature;humidity
5846;DHT22;2949;50.778;7.094;2023-08-06T00:02:04;15.70;99.90
5846;DHT22;2949;50.778;7.094;2023-08-06T00:04:30;15.60;99.90
5846;DHT22;2949;50.778;7.094;2023-08-06T00:06:55;15.50;99.90
5846;DHT22;2949;50.778;7.094;2023-08-06T00:09:21;15.50;99.90
5846;DHT22;2949;50.778;7.094;2023-08-06T00:11:46;15.50;99.90
5846;DHT22;2949;50.778;7.094;2023-08-06T00:14:13;15.50;99.90
5846;DHT22;2949;50.778;7.094;2023-08-06T00:16:42;15.40;99.90
5846;DHT22;2949;50.778;7.094;2023-08-06T00:19:08;15.30;99.90
5846;DHT22;2949;50.778;7.094;2023-08-06T00:21:33;15.30;99.90
5846;DHT22;2949;50.778;7.094;2023-08-06T00:23:59;15.20;99.90
5846;DHT22;2949;50.778;7.094;2023-08-06T00:26:24;15.10;99.90
5846;DHT22;2949;50.778;7.094;2023-08-06T00:28:50;15.00;99.90
5846;DHT22;2949;50.778;7.094;2023-08-06T00:31:15;14.90;99.90
5846;DHT22;2949;50.778;7.094;2023-08-06T00:33:41;15.00;99.90
5846;DHT22;2949;50.778;7.094;2023-08-06T00:36:06;15.00;99.90
5846;DHT22;2949;50.778;7.094;2023-08-06T00:38:32;15.10;99.90
5846;DHT22;2949;50.778;7.094;2023-08-06T00:40:57;15.10;99.90
5846;DHT22;2949;50.778;7.094;2023-08-06T00:43:23;15.20;99.90
5846;DHT22;2949;50.778;7.094;2023-08-06T00:45:49;15.30;99.90
5846;DHT22;2949;50.778;7.094;2023-08-06T00:48:14;15.30;99.90
5846;DHT22;2949;50.778;7.094;2023-08-06T00:50:40;15.40;99.90
5846;DHT22;2949;50.778;7.094;2023-08-06T00:53:06;15.50;99.90
5846;DHT22;2949;50.778;7.094;2023-08-06T00:55:32;15.50;99.90
5846;DHT22;2949;50.778;7.094;2023-08-06T00:57:58;15.50;99.90
5846;DHT22;2949;50.778;7.094;2023-08-06T01:00:24;15.50;99.90
5846;DHT22;2949;50.778;7.094;2023-08-06T01:02:51;15.50;99.90
5846;DHT22;2949;50.778;7.094;2023-08-06T01:05:17;15.50;99.90
5846;DHT22;2949;50.778;7.094;2023-08-06T01:08:15;15.50;99.90
5846;DHT22;2949;50.778;7.094;2023-08-06T01:13:50;15.60;99.90
5846;DHT22;2949;50.778;7.094;2023-08-06T01:16:19;15.60;99.90
5846;DHT22;2949;50.778;7.094;2023-08-06T01:18:47;15.60;99.90
5846;DHT22;2949;50.778;7.094;2023-08-06T01:21:15;15.50;99.90
5846;DHT22;2949;50.778;7.094;2023-08-06T01:23:42;15.60;99.90
5846;DHT22;2949;50.778;7.094;2023-08-06T01:28:56;15.60;99.90
5846;DHT22;2949;50.778;7.094;2023-08-06T01:31:29;15.60;99.90
5846;DHT22;2949;50.778;7.094;2023-08-06T01:33:56;15.50;99.90
5846;DHT22;2949;50.778;7.094;2023-08-06T01:36:23;15.50;99.90
5846;DHT22;2949;50.778;7.094;2023-08-06T01:38:51;15.50;99.90
5846;DHT22;2949;50.778;7.094;2023-08-06T01:41:17;15.50;99.90
5846;DHT22;2949;50.778;7.094;2023-08-06T01:43:43;15.50;99.90
5846;DHT22;2949;50.778;7.094;2023-08-06T01:46:09;15.50;99.90
5846;DHT22;2949;50.778;7.094;2023-08-06T01:48:34;15.40;99.90
5846;DHT22;2949;50.778;7.094;2023-08-06T01:51:00;15.40;99.90
5846;DHT22;2949;50.778;7.094;2023-08-06T01:53:26;15.30;99.90
5846;DHT22;2949;50.778;7.094;2023-08-06T01:55:51;15.20;99.90
5846;DHT22;2949;50.778;7.094;2023-08-06T01:58:17;15.20;99.90
5846;DHT22;2949;50.778;7.094;2023-08-06T02:00:42;15.10;99.90
5846;DHT22;2949;50.778;7.094;2023-08-06T02:03:08;15.10;99.90
5846;DHT22;2949;50.778;7.094;2023-08-06T02:05:33;15.00;99.90
5846;DHT22;2949;50.778;7.094;2023-08-06T02:07:59;14.90;99.90
5846;DHT22;2949;50.778;7.094;2023-08-06T02:10:24;14.80;99.90
5846;DHT22;2949;50.778;7.094;2023-08-06T02:12:50;14.80;99.90
5846;DHT22;2949;50.778;7.094;2023-08-06T02:15:15;14.70;99.90
5846;DHT22;2949;50.778;7.094;2023-08-06T02:17:41;14.70;99.90
5846;DHT22;2949;50.778;7.094;2023-08-06T02:20:07;14.70;99.90
5846;DHT22;2949;50.778;7.094;2023-08-06T02:22:33;14.80;99.90
5846;DHT22;2949;50.778;7.094;2023-08-06T02:24:59;14.80;99.90
5846;DHT22;2949;50.778;7.094;2023-08-06T02:27:25;14.90;99.90
5846;DHT22;2949;50.778;7.094;2023-08-06T02:29:50;14.90;99.90
5846;DHT22;2949;50.778;7.094;2023-08-06T02:32:16;15.10;99.90
5846;DHT22;2949;50.778;7.094;2023-08-06T02:34:41;15.20;99.90
5846;DHT22;2949;50.778;7.094;2023-08-06T02:37:07;15.20;99.90
5846;DHT22;2949;50.778;7.094;2023-08-06T02:39:32;15.20;99.90
5846;DHT22;2949;50.778;7.094;2023-08-06T02:41:59;15.20;99.90
5846;DHT22;2949;50.778;7.094;2023-08-06T02:44:27;15.20;99.90
5846;DHT22;2949;50.778;7.094;2023-08-06T02:46:53;15.20;99.90
5846;DHT22;2949;50.778;7.094;2023-08-06T02:49:19;15.20;99.90
5846;DHT22;2949;50.778;7.094;2023-08-06T02:51:47;15.20;99.90
5846;DHT22;2949;50.778;7.094;2023-08-06T02:54:13;15.20;99.90
5846;DHT22;2949;50.778;7.094;2023-08-06T02:56:38;15.20;99.90
5846;DHT22;2949;50.778;7.094;2023-08-06T02:59:04;15.10;99.90
5846;DHT22;2949;50.778;7.094;2023-08-06T03:01:29;15.10;99.90
5846;DHT22;2949;50.778;7.094;2023-08-06T03:03:55;15.10;99.90
5846;DHT22;2949;50.778;7.094;2023-08-06T03:06:20;15.10;99.90
5846;DHT22;2949;50.778;7.094;2023-08-06T03:08:46;15.00;99.90
5846;DHT22;2949;50.778;7.094;2023-08-06T03:11:11;15.10;99.90
5846;DHT22;2949;50.778;7.094;2023-08-06T03:13:37;15.00;99.90
5846;DHT22;2949;50.778;7.094;2023-08-06T03:16:02;15.00;99.90
5846;DHT22;2949;50.778;7.094;2023-08-06T03:18:28;15.00;99.90
5846;DHT22;2949;50.778;7.094;2023-08-06T03:20:54;14.90;99.90
5846;DHT22;2949;50.778;7.094;2023-08-06T03:23:20;14.90;99.90
5846;DHT22;2949;50.778;7.094;2023-08-06T03:25:45;14.90;99.90
5846;DHT22;2949;50.778;7.094;2023-08-06T03:28:11;14.90;99.90
5846;DHT22;2949;50.778;7.094;2023-08-06T03:30:37;14.90;99.90
5846;DHT22;2949;50.778;7.094;2023-08-06T03:33:02;14.90;99.90
5846;DHT22;2949;50.778;7.094;2023-08-06T03:35:28;14.90;99.90
5846;DHT22;2949;50.778;7.094;2023-08-06T03:37:54;14.90;99.90
5846;DHT22;2949;50.778;7.094;2023-08-06T03:40:19;15.00;99.90
5846;DHT22;2949;50.778;7.094;2023-08-06T03:42:44;15.00;99.90
5846;DHT22;2949;50.778;7.094;2023-08-06T03:45:10;15.00;99.90
5846;DHT22;2949;50.778;7.094;2023-08-06T03:47:36;15.00;99.90
5846;DHT22;2949;50.778;7.094;2023-08-06T03:50:01;15.00;99.90
5846;DHT22;2949;50.778;7.094;2023-08-06T03:52:27;15.00;99.90
5846;DHT22;2949;50.778;7.094;2023-08-06T03:54:52;15.00;99.90
5846;DHT22;2949;50.778;7.094;2023-08-06T03:57:18;15.00;99.90
5846;DHT22;2949;50.778;7.094;2023-08-06T03:59:43;15.00;99.90
5846;DHT22;2949;50.778;7.094;2023-08-06T04:02:09;15.00;99.90
5846;DHT22;2949;50.778;7.094;2023-08-06T04:04:34;15.00;99.90
5846;DHT22;2949;50.778;7.094;2023-08-06T04:07:00;15.00;99.90
5846;DHT22;2949;50.778;7.094;2023-08-06T04:09:28;15.00;99.90
5846;DHT22;2949;50.778;7.094;2023-08-06T04:11:54;14.90;99.90
5846;DHT22;2949;50.778;7.094;2023-08-06T04:14:19;14.90;99.90
5846;DHT22;2949;50.778;7.094;2023-08-06T04:16:45;14.90;99.90
5846;DHT22;2949;50.778;7.094;2023-08-06T04:19:10;14.90;99.90
5846;DHT22;2949;50.778;7.094;2023-08-06T04:21:36;14.90;99.90
5846;DHT22;2949;50.778;7.094;2023-08-06T04:24:01;14.90;99.90
5846;DHT22;2949;50.778;7.094;2023-08-06T04:26:27;14.90;99.90
5846;DHT22;2949;50.778;7.094;2023-08-06T04:28:52;14.90;99.90
5846;DHT22;2949;50.778;7.094;2023-08-06T04:31:18;14.90;99.90
5846;DHT22;2949;50.778;7.094;2023-08-06T04:33:43;14.90;99.90
5846;DHT22;2949;50.778;7.094;2023-08-06T04:36:09;14.90;99.90
5846;DHT22;2949;50.778;7.094;2023-08-06T04:38:34;14.90;99.90
5846;DHT22;2949;50.778;7.094;2023-08-06T04:41:02;15.00;99.90
5846;DHT22;2949;50.778;7.094;2023-08-06T04:43:28;14.90;99.90
5846;DHT22;2949;50.778;7.094;2023-08-06T04:45:54;14.90;99.90
5846;DHT22;2949;50.778;7.094;2023-08-06T04:48:20;14.90;99.90
5846;DHT22;2949;50.778;7.094;2023-08-06T04:50:50;14.90;99.90
5846;DHT22;2949;50.778;7.094;2023-08-06T04:53:16;14.90;99.90
5846;DHT22;2949;50.778;7.094;2023-08-06T04:55:42;14.90;99.90
5846;DHT22;2949;50.778;7.094;2023-08-06T04:58:09;14.90;99.90
5846;DHT22;2949;50.778;7.094;2023-08-06T05:00:35;15.00;99.90
5846;DHT22;2949;50.778;7.094;2023-08-06T05:03:01;15.00;99.90
5846;DHT22;2949;50.778;7.094;2023-08-06T05:05:27;15.00;99.90
5846;DHT22;2949;50.778;7.094;2023-08-06T05:07:54;15.10;99.90
5846;DHT22;2949;50.778;7.094;2023-08-06T05:10:20;15.20;99.90
5846;DHT22;2949;50.778;7.094;2023-08-06T05:12:46;15.30;99.90
5846;DHT22;2949;50.778;7.094;2023-08-06T05:15:12;15.50;99.90
5846;DHT22;2949;50.778;7.094;2023-08-06T05:17:37;15.60;99.90
5846;DHT22;2949;50.778;7.094;2023-08-06T05:20:03;15.70;99.90
5846;DHT22;2949;50.778;7.094;2023-08-06T05:22:29;15.60;99.90
5846;DHT22;2949;50.778;7.094;2023-08-06T05:24:55;15.60;99.90
5846;DHT22;2949;50.778;7.094;2023-08-06T05:27:20;15.40;99.90
5846;DHT22;2949;50.778;7.094;2023-08-06T05:29:48;15.50;99.90
5846;DHT22;2949;50.778;7.094;2023-08-06T05:32:13;15.50;99.90
5846;DHT22;2949;50.778;7.094;2023-08-06T05:34:39;15.60;99.90
5846;DHT22;2949;50.778;7.094;2023-08-06T05:37:05;15.70;99.90
5846;DHT22;2949;50.778;7.094;2023-08-06T05:39:30;15.80;99.90
5846;DHT22;2949;50.778;7.094;2023-08-06T05:41:56;15.90;99.90
5846;DHT22;2949;50.778;7.094;2023-08-06T05:44:23;16.00;99.90
5846;DHT22;2949;50.778;7.094;2023-08-06T05:46:49;16.00;99.90
5846;DHT22;2949;50.778;7.094;2023-08-06T05:49:15;16.10;99.90
5846;DHT22;2949;50.778;7.094;2023-08-06T05:51:41;16.10;99.90
5846;DHT22;2949;50.778;7.094;2023-08-06T05:54:06;16.10;99.90
5846;DHT22;2949;50.778;7.094;2023-08-06T05:56:32;16.10;99.90
5846;DHT22;2949;50.778;7.094;2023-08-06T05:58:57;16.00;99.90
5846;DHT22;2949;50.778;7.094;2023-08-06T06:01:23;16.00;99.90
5846;DHT22;2949;50.778;7.094;2023-08-06T06:03:48;16.00;99.90
5846;DHT22;2949;50.778;7.094;2023-08-06T06:06:14;16.00;99.90
5846;DHT22;2949;50.778;7.094;2023-08-06T06:08:40;16.00;99.90
5846;DHT22;2949;50.778;7.094;2023-08-06T06:11:05;16.00;99.90
5846;DHT22;2949;50.778;7.094;2023-08-06T06:13:31;16.10;99.90
5846;DHT22;2949;50.778;7.094;2023-08-06T06:15:56;16.10;99.90
5846;DHT22;2949;50.778;7.094;2023-08-06T06:18:22;16.10;99.90
5846;DHT22;2949;50.778;7.094;2023-08-06T06:20:48;16.20;99.90
5846;DHT22;2949;50.778;7.094;2023-08-06T06:23:14;16.20;99.90
5846;DHT22;2949;50.778;7.094;2023-08-06T06:25:44;16.20;99.90
5846;DHT22;2949;50.778;7.094;2023-08-06T06:28:12;16.20;99.90
5846;DHT22;2949;50.778;7.094;2023-08-06T06:30:37;16.20;99.90
5846;DHT22;2949;50.778;7.094;2023-08-06T06:33:03;16.20;99.90
5846;DHT22;2949;50.778;7.094;2023-08-06T06:35:28;16.20;99.90
5846;DHT22;2949;50.778;7.094;2023-08-06T06:37:54;16.20;99.90
5846;DHT22;2949;50.778;7.094;2023-08-06T06:40:19;16.20;99.90
5846;DHT22;2949;50.778;7.094;2023-08-06T06:42:45;16.30;99.90
5846;DHT22;2949;50.778;7.094;2023-08-06T06:45:10;16.30;99.90
5846;DHT22;2949;50.778;7.094;2023-08-06T06:47:36;16.50;99.90
5846;DHT22;2949;50.778;7.094;2023-08-06T06:50:01;16.60;99.90
5846;DHT22;2949;50.778;7.094;2023-08-06T06:52:27;16.70;99.90
5846;DHT22;2949;50.778;7.094;2023-08-06T06:54:52;16.80;99.90
5846;DHT22;2949;50.778;7.094;2023-08-06T06:57:18;16.80;99.90
5846;DHT22;2949;50.778;7.094;2023-08-06T06:59:43;16.80;99.90
5846;DHT22;2949;50.778;7.094;2023-08-06T07:02:09;16.90;99.90
5846;DHT22;2949;50.778;7.094;2023-08-06T07:04:34;17.10;99.90
5846;DHT22;2949;50.778;7.094;2023-08-06T07:07:00;17.30;99.90
5846;DHT22;2949;50.778;7.094;2023-08-06T07:09:26;17.60;99.90
5846;DHT22;2949;50.778;7.094;2023-08-06T07:11:52;18.00;99.90
5846;DHT22;2949;50.778;7.094;2023-08-06T07:14:18;18.30;99.90
5846;DHT22;2949;50.778;7.094;2023-08-06T07:16:44;18.70;99.90
5846;DHT22;2949;50.778;7.094;2023-08-06T07:19:09;18.80;99.90
5846;DHT22;2949;50.778;7.094;2023-08-06T07:21:35;18.80;99.90
5846;DHT22;2949;50.778;7.094;2023-08-06T07:24:00;19.10;99.90
5846;DHT22;2949;50.778;7.094;2023-08-06T07:26:26;19.40;99.90
5846;DHT22;2949;50.778;7.094;2023-08-06T07:28:52;19.50;99.90
5846;DHT22;2949;50.778;7.094;2023-08-06T07:31:17;19.30;99.90
5846;DHT22;2949;50.778;7.094;2023-08-06T07:33:43;19.10;99.90
5846;DHT22;2949;50.778;7.094;2023-08-06T07:36:13;19.00;99.90
5846;DHT22;2949;50.778;7.094;2023-08-06T07:38:39;18.70;99.90
5846;DHT22;2949;50.778;7.094;2023-08-06T07:41:05;18.60;99.90
5846;DHT22;2949;50.778;7.094;2023-08-06T07:43:31;18.80;99.90
5846;DHT22;2949;50.778;7.094;2023-08-06T07:46:00;19.30;99.90
5846;DHT22;2949;50.778;7.094;2023-08-06T07:48:29;19.80;99.90
5846;DHT22;2949;50.778;7.094;2023-08-06T07:50:55;20.10;99.90
5846;DHT22;2949;50.778;7.094;2023-08-06T07:53:25;20.30;99.90
5846;DHT22;2949;50.778;7.094;2023-08-06T07:55:54;20.20;99.90
5846;DHT22;2949;50.778;7.094;2023-08-06T07:58:20;20.30;99.90
5846;DHT22;2949;50.778;7.094;2023-08-06T08:00:47;20.10;99.90
5846;DHT22;2949;50.778;7.094;2023-08-06T08:03:13;19.80;99.90
5846;DHT22;2949;50.778;7.094;2023-08-06T08:05:40;19.50;99.90
5846;DHT22;2949;50.778;7.094;2023-08-06T08:08:06;19.50;99.90
5846;DHT22;2949;50.778;7.094;2023-08-06T08:10:32;19.50;99.90
5846;DHT22;2949;50.778;7.094;2023-08-06T08:12:57;19.30;99.90
5846;DHT22;2949;50.778;7.094;2023-08-06T08:15:24;19.10;99.90
5846;DHT22;2949;50.778;7.094;2023-08-06T08:17:51;19.10;99.90
5846;DHT22;2949;50.778;7.094;2023-08-06T08:20:17;19.00;99.90
5846;DHT22;2949;50.778;7.094;2023-08-06T08:22:43;18.70;99.90
5846;DHT22;2949;50.778;7.094;2023-08-06T08:25:08;18.50;99.90
5846;DHT22;2949;50.778;7.094;2023-08-06T08:27:34;18.50;99.90
5846;DHT22;2949;50.778;7.094;2023-08-06T08:29:59;18.80;99.90
5846;DHT22;2949;50.778;7.094;2023-08-06T08:32:25;19.00;99.90
5846;DHT22;2949;50.778;7.094;2023-08-06T08:34:50;19.00;99.90
5846;DHT22;2949;50.778;7.094;2023-08-06T08:37:16;18.90;99.90
5846;DHT22;2949;50.778;7.094;2023-08-06T08:39:41;18.80;99.90
5846;DHT22;2949;50.778;7.094;2023-08-06T08:42:08;18.70;99.90
5846;DHT22;2949;50.778;7.094;2023-08-06T08:44:35;18.50;99.90
5846;DHT22;2949;50.778;7.094;2023-08-06T08:47:07;18.20;99.90
5846;DHT22;2949;50.778;7.094;2023-08-06T08:49:35;17.90;99.90
5846;DHT22;2949;50.778;7.094;2023-08-06T08:52:02;17.70;99.90
5846;DHT22;2949;50.778;7.094;2023-08-06T08:54:28;17.50;99.90
5846;DHT22;2949;50.778;7.094;2023-08-06T08:56:56;17.40;99.90
5846;DHT22;2949;50.778;7.094;2023-08-06T08:59:22;17.40;99.90
5846;DHT22;2949;50.778;7.094;2023-08-06T09:01:48;17.40;99.90
5846;DHT22;2949;50.778;7.094;2023-08-06T09:04:18;17.30;99.90
5846;DHT22;2949;50.778;7.094;2023-08-06T09:06:46;17.20;99.90
5846;DHT22;2949;50.778;7.094;2023-08-06T09:09:22;17.10;99.90
5846;DHT22;2949;50.778;7.094;2023-08-06T09:11:51;17.20;99.90
5846;DHT22;2949;50.778;7.094;2023-08-06T09:14:17;17.60;99.90
5846;DHT22;2949;50.778;7.094;2023-08-06T09:16:43;18.10;99.90
5846;DHT22;2949;50.778;7.094;2023-08-06T09:19:13;18.80;99.90
5846;DHT22;2949;50.778;7.094;2023-08-06T09:21:41;19.20;99.90
5846;DHT22;2949;50.778;7.094;2023-08-06T09:24:11;19.10;99.90
5846;DHT22;2949;50.778;7.094;2023-08-06T09:26:38;19.10;99.90
5846;DHT22;2949;50.778;7.094;2023-08-06T09:29:05;18.90;99.90
5846;DHT22;2949;50.778;7.094;2023-08-06T09:31:43;18.80;99.90
5846;DHT22;2949;50.778;7.094;2023-08-06T09:36:52;18.60;99.90
5846;DHT22;2949;50.778;7.094;2023-08-06T09:39:20;18.40;99.90
5846;DHT22;2949;50.778;7.094;2023-08-06T09:41:47;18.00;99.90
5846;DHT22;2949;50.778;7.094;2023-08-06T09:44:16;17.80;99.90
5846;DHT22;2949;50.778;7.094;2023-08-06T09:46:49;17.50;99.90
5846;DHT22;2949;50.778;7.094;2023-08-06T09:49:17;17.40;99.90
5846;DHT22;2949;50.778;7.094;2023-08-06T09:51:43;17.30;99.90
5846;DHT22;2949;50.778;7.094;2023-08-06T09:54:13;17.10;99.90
5846;DHT22;2949;50.778;7.094;2023-08-06T09:56:40;17.10;99.90
5846;DHT22;2949;50.778;7.094;2023-08-06T09:59:07;17.10;99.90
5846;DHT22;2949;50.778;7.094;2023-08-06T10:01:34;17.00;99.90
5846;DHT22;2949;50.778;7.094;2023-08-06T10:04:01;16.90;99.90
5846;DHT22;2949;50.778;7.094;2023-08-06T10:06:28;16.70;99.90
5846;DHT22;2949;50.778;7.094;2023-08-06T10:08:54;16.60;99.90
5846;DHT22;2949;50.778;7.094;2023-08-06T10:11:22;16.40;99.90
5846;DHT22;2949;50.778;7.094;2023-08-06T10:13:50;16.30;99.90
5846;DHT22;2949;50.778;7.094;2023-08-06T10:16:18;16.00;99.90
5846;DHT22;2949;50.778;7.094;2023-08-06T10:18:43;15.80;99.90
5846;DHT22;2949;50.778;7.094;2023-08-06T10:21:09;15.60;99.90
5846;DHT22;2949;50.778;7.094;2023-08-06T10:23:36;15.50;99.90
5846;DHT22;2949;50.778;7.094;2023-08-06T10:26:05;15.30;99.90
5846;DHT22;2949;50.778;7.094;2023-08-06T10:28:36;15.10;99.90
5846;DHT22;2949;50.778;7.094;2023-08-06T10:31:02;14.90;99.90
5846;DHT22;2949;50.778;7.094;2023-08-06T10:33:41;14.70;99.90
5846;DHT22;2949;50.778;7.094;2023-08-06T10:36:09;14.60;99.90
5846;DHT22;2949;50.778;7.094;2023-08-06T10:38:35;14.40;99.90
5846;DHT22;2949;50.778;7.094;2023-08-06T10:41:03;14.30;99.90
5846;DHT22;2949;50.778;7.094;2023-08-06T10:46:03;14.20;99.90
5846;DHT22;2949;50.778;7.094;2023-08-06T10:48:37;14.30;99.90
5846;DHT22;2949;50.778;7.094;2023-08-06T10:51:03;14.30;99.90
5846;DHT22;2949;50.778;7.094;2023-08-06T10:53:30;14.30;99.90
5846;DHT22;2949;50.778;7.094;2023-08-06T10:55:55;14.40;99.90
5846;DHT22;2949;50.778;7.094;2023-08-06T10:58:21;14.50;99.90
5846;DHT22;2949;50.778;7.094;2023-08-06T11:00:46;14.50;99.90
5846;DHT22;2949;50.778;7.094;2023-08-06T11:03:12;14.50;99.90
5846;DHT22;2949;50.778;7.094;2023-08-06T11:05:38;14.40;99.90
5846;DHT22;2949;50.778;7.094;2023-08-06T11:08:04;14.50;99.90
5846;DHT22;2949;50.778;7.094;2023-08-06T11:10:32;14.60;99.90
5846;DHT22;2949;50.778;7.094;2023-08-06T11:13:01;14.60;99.90
5846;DHT22;2949;50.778;7.094;2023-08-06T11:15:27;14.70;99.90
5846;DHT22;2949;50.778;7.094;2023-08-06T11:17:53;14.80;99.90
5846;DHT22;2949;50.778;7.094;2023-08-06T11:20:20;14.80;99.90
5846;DHT22;2949;50.778;7.094;2023-08-06T11:22:47;14.90;99.90
5846;DHT22;2949;50.778;7.094;2023-08-06T11:25:13;14.90;99.90
5846;DHT22;2949;50.778;7.094;2023-08-06T11:27:38;14.90;99.90
5846;DHT22;2949;50.778;7.094;2023-08-06T11:30:04;14.90;99.90
5846;DHT22;2949;50.778;7.094;2023-08-06T11:32:30;14.90;99.90
5846;DHT22;2949;50.778;7.094;2023-08-06T11:34:56;14.80;99.90
5846;DHT22;2949;50.778;7.094;2023-08-06T11:37:22;14.80;99.90
5846;DHT22;2949;50.778;7.094;2023-08-06T11:39:51;14.80;99.90
5846;DHT22;2949;50.778;7.094;2023-08-06T11:42:17;14.80;99.90
5846;DHT22;2949;50.778;7.094;2023-08-06T11:44:43;14.90;99.90
5846;DHT22;2949;50.778;7.094;2023-08-06T11:47:13;14.90;99.90
5846;DHT22;2949;50.778;7.094;2023-08-06T11:52:19;15.10;99.90
5846;DHT22;2949;50.778;7.094;2023-08-06T11:55:03;15.30;99.90
5846;DHT22;2949;50.778;7.094;2023-08-06T11:57:32;15.40;99.90
5846;DHT22;2949;50.778;7.094;2023-08-06T12:00:09;15.30;99.90
5846;DHT22;2949;50.778;7.094;2023-08-06T12:02:35;15.40;99.90
5846;DHT22;2949;50.778;7.094;2023-08-06T12:05:15;15.40;99.90
5846;DHT22;2949;50.778;7.094;2023-08-06T12:07:42;15.40;99.90
5846;DHT22;2949;50.778;7.094;2023-08-06T12:10:08;15.40;99.90
5846;DHT22;2949;50.778;7.094;2023-08-06T12:12:35;15.40;99.90
5846;DHT22;2949;50.778;7.094;2023-08-06T12:15:00;15.40;99.90
5846;DHT22;2949;50.778;7.094;2023-08-06T12:17:26;15.40;99.90
5846;DHT22;2949;50.778;7.094;2023-08-06T12:19:52;15.40;99.90
5846;DHT22;2949;50.778;7.094;2023-08-06T12:22:17;15.40;99.90
5846;DHT22;2949;50.778;7.094;2023-08-06T12:24:46;15.50;99.90
5846;DHT22;2949;50.778;7.094;2023-08-06T12:27:12;15.50;99.90
5846;DHT22;2949;50.778;7.094;2023-08-06T12:29:42;15.40;99.90
5846;DHT22;2949;50.778;7.094;2023-08-06T12:32:09;15.40;99.90
5846;DHT22;2949;50.778;7.094;2023-08-06T12:34:34;15.30;99.90
5846;DHT22;2949;50.778;7.094;2023-08-06T12:37:00;15.30;99.90
5846;DHT22;2949;50.778;7.094;2023-08-06T12:39:25;15.40;99.90
5846;DHT22;2949;50.778;7.094;2023-08-06T12:41:54;15.40;99.90
5846;DHT22;2949;50.778;7.094;2023-08-06T12:44:20;15.50;99.90
5846;DHT22;2949;50.778;7.094;2023-08-06T12:46:45;15.40;99.90
5846;DHT22;2949;50.778;7.094;2023-08-06T12:49:11;15.50;99.90
5846;DHT22;2949;50.778;7.094;2023-08-06T12:51:36;15.40;99.90
5846;DHT22;2949;50.778;7.094;2023-08-06T12:54:02;15.40;99.90
5846;DHT22;2949;50.778;7.094;2023-08-06T12:56:27;15.40;99.90
5846;DHT22;2949;50.778;7.094;2023-08-06T12:58:54;15.40;99.90
5846;DHT22;2949;50.778;7.094;2023-08-06T13:01:19;15.30;99.90
5846;DHT22;2949;50.778;7.094;2023-08-06T13:03:45;15.30;99.90
5846;DHT22;2949;50.778;7.094;2023-08-06T13:06:11;15.30;99.90
5846;DHT22;2949;50.778;7.094;2023-08-06T13:08:37;15.30;99.90
5846;DHT22;2949;50.778;7.094;2023-08-06T13:11:03;15.30;99.90
5846;DHT22;2949;50.778;7.094;2023-08-06T13:13:28;15.30;99.90
5846;DHT22;2949;50.778;7.094;2023-08-06T13:15:54;15.30;99.90
5846;DHT22;2949;50.778;7.094;2023-08-06T13:18:20;15.30;99.90
5846;DHT22;2949;50.778;7.094;2023-08-06T13:20:45;15.30;99.90
5846;DHT22;2949;50.778;7.094;2023-08-06T13:23:12;15.30;99.90
5846;DHT22;2949;50.778;7.094;2023-08-06T13:25:40;15.30;99.90
5846;DHT22;2949;50.778;7.094;2023-08-06T13:28:06;15.30;99.90
5846;DHT22;2949;50.778;7.094;2023-08-06T13:30:31;15.30;99.90
5846;DHT22;2949;50.778;7.094;2023-08-06T13:32:57;15.40;99.90
5846;DHT22;2949;50.778;7.094;2023-08-06T13:35:23;15.40;99.90
5846;DHT22;2949;50.778;7.094;2023-08-06T13:37:49;15.40;99.90
5846;DHT22;2949;50.778;7.094;2023-08-06T13:40:15;15.50;99.90
5846;DHT22;2949;50.778;7.094;2023-08-06T13:42:40;15.50;99.90
5846;DHT22;2949;50.778;7.094;2023-08-06T13:45:07;15.40;99.90
5846;DHT22;2949;50.778;7.094;2023-08-06T13:47:32;15.30;99.90
5846;DHT22;2949;50.778;7.094;2023-08-06T13:49:58;15.20;99.90
5846;DHT22;2949;50.778;7.094;2023-08-06T13:52:25;15.20;99.90
5846;DHT22;2949;50.778;7.094;2023-08-06T13:54:51;15.10;99.90
5846;DHT22;2949;50.778;7.094;2023-08-06T13:57:17;15.10;99.90
5846;DHT22;2949;50.778;7.094;2023-08-06T13:59:43;15.10;99.90
5846;DHT22;2949;50.778;7.094;2023-08-06T14:02:09;15.10;99.90
5846;DHT22;2949;50.778;7.094;2023-08-06T14:04:35;15.20;99.90
5846;DHT22;2949;50.778;7.094;2023-08-06T14:07:01;15.30;99.90
5846;DHT22;2949;50.778;7.094;2023-08-06T14:09:26;15.50;99.90
5846;DHT22;2949;50.778;7.094;2023-08-06T14:11:52;15.60;99.90
5846;DHT22;2949;50.778;7.094;2023-08-06T14:14:17;15.60;99.90
5846;DHT22;2949;50.778;7.094;2023-08-06T14:16:43;15.60;99.90
5846;DHT22;2949;50.778;7.094;2023-08-06T14:19:08;15.70;99.90
5846;DHT22;2949;50.778;7.094;2023-08-06T14:21:34;15.70;99.90
5846;DHT22;2949;50.778;7.094;2023-08-06T14:23:59;15.70;99.90
5846;DHT22;2949;50.778;7.094;2023-08-06T14:26:25;15.70;99.90
5846;DHT22;2949;50.778;7.094;2023-08-06T14:28:50;15.80;99.90
5846;DHT22;2949;50.778;7.094;2023-08-06T14:31:20;15.70;99.90
5846;DHT22;2949;50.778;7.094;2023-08-06T14:33:46;15.70;99.90
5846;DHT22;2949;50.778;7.094;2023-08-06T14:36:11;15.70;99.90
5846;DHT22;2949;50.778;7.094;2023-08-06T14:38:37;15.70;99.90
5846;DHT22;2949;50.778;7.094;2023-08-06T14:41:02;15.60;99.90
5846;DHT22;2949;50.778;7.094;2023-08-06T14:43:28;15.70;99.90
5846;DHT22;2949;50.778;7.094;2023-08-06T14:45:53;15.70;99.90
5846;DHT22;2949;50.778;7.094;2023-08-06T14:48:19;15.80;99.90
5846;DHT22;2949;50.778;7.094;2023-08-06T14:50:44;15.80;99.90
5846;DHT22;2949;50.778;7.094;2023-08-06T14:53:10;15.90;99.90
5846;DHT22;2949;50.778;7.094;2023-08-06T14:55:37;16.00;99.90
5846;DHT22;2949;50.778;7.094;2023-08-06T14:58:02;16.20;99.90
5846;DHT22;2949;50.778;7.094;2023-08-06T15:00:28;16.30;99.90
5846;DHT22;2949;50.778;7.094;2023-08-06T15:02:53;16.40;99.90
5846;DHT22;2949;50.778;7.094;2023-08-06T15:05:19;16.40;99.90
5846;DHT22;2949;50.778;7.094;2023-08-06T15:07:44;16.40;99.90
5846;DHT22;2949;50.778;7.094;2023-08-06T15:10:10;16.40;99.90
5846;DHT22;2949;50.778;7.094;2023-08-06T15:12:35;16.40;99.90
5846;DHT22;2949;50.778;7.094;2023-08-06T15:15:01;16.50;99.90
5846;DHT22;2949;50.778;7.094;2023-08-06T15:17:27;16.60;99.90
5846;DHT22;2949;50.778;7.094;2023-08-06T15:19:56;16.70;99.90
5846;DHT22;2949;50.778;7.094;2023-08-06T15:22:22;16.70;99.90
5846;DHT22;2949;50.778;7.094;2023-08-06T15:24:47;16.80;99.90
5846;DHT22;2949;50.778;7.094;2023-08-06T15:27:12;16.70;99.90
5846;DHT22;2949;50.778;7.094;2023-08-06T15:29:38;16.70;99.90
5846;DHT22;2949;50.778;7.094;2023-08-06T15:32:04;16.70;99.90
5846;DHT22;2949;50.778;7.094;2023-08-06T15:34:29;16.70;99.90
5846;DHT22;2949;50.778;7.094;2023-08-06T15:36:55;16.80;99.90
5846;DHT22;2949;50.778;7.094;2023-08-06T15:39:21;16.80;99.90
5846;DHT22;2949;50.778;7.094;2023-08-06T15:41:46;16.80;99.90
5846;DHT22;2949;50.778;7.094;2023-08-06T15:44:12;16.70;99.90
5846;DHT22;2949;50.778;7.094;2023-08-06T15:46:37;16.60;99.90
5846;DHT22;2949;50.778;7.094;2023-08-06T15:49:03;16.60;99.90
5846;DHT22;2949;50.778;7.094;2023-08-06T15:51:30;16.40;99.90
5846;DHT22;2949;50.778;7.094;2023-08-06T15:53:55;16.40;99.90
5846;DHT22;2949;50.778;7.094;2023-08-06T15:56:21;16.50;99.90
5846;DHT22;2949;50.778;7.094;2023-08-06T15:58:46;16.40;99.90
5846;DHT22;2949;50.778;7.094;2023-08-06T16:01:12;16.40;99.90
5846;DHT22;2949;50.778;7.094;2023-08-06T16:03:39;16.40;99.90
5846;DHT22;2949;50.778;7.094;2023-08-06T16:06:11;16.40;99.90
5846;DHT22;2949;50.778;7.094;2023-08-06T16:08:37;16.40;99.90
5846;DHT22;2949;50.778;7.094;2023-08-06T16:11:03;16.40;99.90